Bovina, Texas
Current Conditions -  °F | °C
As of 1:35 AM on Wednesday 22 Oct 2014 (Local Time) from KCVN Reporting Station
Overcast Overcast  
Wind Chill: 59°   Ceiling: 4700
Heat Index: 59°   Visibility: 10mi
Dew Point: 54°   Wind: 7mph
Humidity: 82%   Direction: 210°SSW
Pressure: 30.13"   Gusts: NA
Location:  34.51°N, 102.88°W
Report Text: KCVN 220635Z AUTO 21006KT 10SM FEW041 OVC047 15/12 A3013 RMK AO1
Loading
Personal Weather Stations






























Interactive Weather Map
Tropical Storm Tracking
New forecast layout! Learn more

10-Day Weather Forecast

Advertisements
Track Severe Weather on mobile